createdAt,value
2019-05-15T00:00:38.454Z,7.72
2019-05-15T00:01:40.711Z,7.70
2019-05-15T00:02:38.836Z,7.75
2019-05-15T00:03:38.847Z,7.73
2019-05-15T00:04:38.222Z,7.72
2019-05-15T00:05:38.677Z,7.75
2019-05-15T00:06:35.966Z,7.75
2019-05-15T00:07:35.970Z,7.73
2019-05-15T00:08:38.427Z,7.70
2019-05-15T00:09:41.208Z,7.75
2019-05-15T00:10:38.911Z,7.75
2019-05-15T00:11:35.900Z,7.72
2019-05-15T00:12:35.921Z,7.73
2019-05-15T00:13:35.932Z,7.75
2019-05-15T00:14:35.876Z,7.75
2019-05-15T00:15:35.884Z,7.77
2019-05-15T00:16:38.422Z,7.77
2019-05-15T00:17:35.868Z,7.76
2019-05-15T00:18:35.988Z,7.77
2019-05-15T00:19:35.855Z,7.82
2019-05-15T00:20:35.798Z,7.85
2019-05-15T00:21:38.075Z,7.83
2019-05-15T00:22:35.798Z,7.79
2019-05-15T00:23:35.834Z,7.75
2019-05-15T00:24:38.012Z,7.73
2019-05-15T00:25:35.806Z,7.70
2019-05-15T00:26:35.749Z,7.69
2019-05-15T00:27:38.330Z,7.63
2019-05-15T00:28:35.764Z,7.61
2019-05-15T00:29:35.724Z,7.60
2019-05-15T00:30:35.710Z,7.63
2019-05-15T00:31:35.712Z,7.66
2019-05-15T00:32:35.728Z,7.61
2019-05-15T00:33:35.736Z,7.58
2019-05-15T00:34:37.788Z,7.57
2019-05-15T00:35:35.698Z,7.54
2019-05-15T00:36:38.103Z,7.54
2019-05-15T00:37:35.637Z,7.51
2019-05-15T00:38:35.625Z,7.48
2019-05-15T00:39:35.603Z,7.43
2019-05-15T00:40:35.605Z,7.42
2019-05-15T00:41:48.322Z,7.36
2019-05-15T00:42:38.386Z,7.35
2019-05-15T00:43:35.545Z,7.28
2019-05-15T00:44:35.571Z,7.21
2019-05-15T00:45:35.555Z,7.15
2019-05-15T00:46:35.523Z,7.11
2019-05-15T00:47:35.531Z,7.11
2019-05-15T00:48:35.549Z,7.11
2019-05-15T00:49:35.470Z,7.14
2019-05-15T00:50:35.503Z,7.14
2019-05-15T00:51:35.473Z,7.17
2019-05-15T00:52:35.528Z,7.13
2019-05-15T00:53:35.491Z,7.13
2019-05-15T00:54:35.450Z,7.06
2019-05-15T00:55:37.874Z,7.05
2019-05-15T00:56:35.411Z,7.05
2019-05-15T00:57:35.399Z,7.02
2019-05-15T00:58:35.400Z,6.97
2019-05-15T00:59:35.389Z,6.93
2019-05-15T01:00:38.028Z,6.89
2019-05-15T01:01:35.372Z,6.88
2019-05-15T01:02:35.341Z,6.89
2019-05-15T01:03:35.334Z,6.89
2019-05-15T01:04:35.393Z,6.89
2019-05-15T01:05:35.354Z,6.85
2019-05-15T01:06:35.306Z,6.79
2019-05-15T01:07:35.357Z,6.69
2019-05-15T01:08:35.355Z,6.56
2019-05-15T01:09:35.273Z,6.46
2019-05-15T01:10:35.285Z,6.42
2019-05-15T01:11:35.340Z,6.36
2019-05-15T01:12:35.220Z,6.26
2019-05-15T01:13:35.242Z,6.17
2019-05-15T01:14:35.339Z,6.08
2019-05-15T01:15:35.232Z,6.02
2019-05-15T01:16:35.222Z,5.97
2019-05-15T01:17:35.258Z,5.94
2019-05-15T01:18:35.200Z,5.94
2019-05-15T01:19:35.172Z,5.97
2019-05-15T01:20:35.140Z,6.01
2019-05-15T01:21:35.163Z,6.24
2019-05-15T01:22:35.180Z,6.36
2019-05-15T01:23:35.143Z,6.45
2019-05-15T01:24:35.140Z,6.51
2019-05-15T01:25:35.079Z,6.57
2019-05-15T01:26:35.159Z,6.57
2019-05-15T01:27:35.088Z,6.60
2019-05-15T01:28:35.106Z,6.62
2019-05-15T01:29:43.711Z,6.64
2019-05-15T01:30:36.077Z,6.64
2019-05-15T01:31:35.048Z,6.63
2019-05-15T01:32:35.076Z,6.60
2019-05-15T01:33:35.008Z,6.67
2019-05-15T01:34:35.049Z,6.75
2019-05-15T01:35:35.033Z,6.88
2019-05-15T01:36:35.032Z,6.88
2019-05-15T01:37:34.985Z,6.87
2019-05-15T01:38:34.946Z,6.88
2019-05-15T01:39:34.954Z,6.85
2019-05-15T01:40:34.968Z,6.84
2019-05-15T01:41:34.970Z,6.81
2019-05-15T01:42:34.962Z,6.81
2019-05-15T01:43:34.914Z,6.78
2019-05-15T01:44:34.922Z,6.77
2019-05-15T01:45:34.909Z,6.74
2019-05-15T01:46:34.930Z,6.74
2019-05-15T01:47:34.862Z,6.70
2019-05-15T01:48:34.868Z,6.63
2019-05-15T01:49:34.852Z,6.59
2019-05-15T01:50:34.850Z,6.59
2019-05-15T01:51:34.830Z,6.57
2019-05-15T01:52:34.844Z,6.54
2019-05-15T01:53:34.792Z,6.49
2019-05-15T01:54:34.800Z,6.44
2019-05-15T01:55:34.820Z,6.33
2019-05-15T01:56:34.788Z,6.17
2019-05-15T01:57:34.754Z,6.01
2019-05-15T01:58:34.768Z,5.82
2019-05-15T01:59:34.711Z,5.69
2019-05-15T02:00:34.724Z,5.59
2019-05-15T02:01:34.702Z,5.54
2019-05-15T02:02:34.748Z,5.43
2019-05-15T02:03:34.706Z,5.30
2019-05-15T02:04:34.656Z,5.15
2019-05-15T02:05:34.664Z,5.05
2019-05-15T02:06:34.658Z,4.96
2019-05-15T02:07:34.668Z,4.87
2019-05-15T02:08:34.615Z,4.73
2019-05-15T02:09:34.636Z,4.59
2019-05-15T02:10:34.732Z,4.50
2019-05-15T02:11:34.642Z,4.49
2019-05-15T02:12:34.572Z,4.42
2019-05-15T02:13:34.673Z,4.34
2019-05-15T02:14:34.557Z,4.37
2019-05-15T02:15:34.542Z,4.32
2019-05-15T02:16:34.709Z,4.28
2019-05-15T02:17:34.579Z,4.19
2019-05-15T02:18:34.541Z,4.14
2019-05-15T02:19:34.644Z,4.12
2019-05-15T02:20:34.516Z,4.05
2019-05-15T02:21:34.509Z,3.96
2019-05-15T02:22:34.503Z,3.94
2019-05-15T02:23:34.526Z,3.92
2019-05-15T02:24:34.452Z,3.87
2019-05-15T02:25:34.423Z,3.88
2019-05-15T02:26:34.450Z,3.91
2019-05-15T02:27:34.416Z,3.86
2019-05-15T02:28:34.426Z,3.81
2019-05-15T02:29:34.435Z,3.77
2019-05-15T02:30:34.594Z,3.74
2019-05-15T02:31:34.415Z,3.78
2019-05-15T02:32:34.373Z,3.74
2019-05-15T02:33:34.382Z,3.70
2019-05-15T02:34:34.383Z,3.66
2019-05-15T02:35:34.342Z,3.63
2019-05-15T02:36:34.315Z,3.62
2019-05-15T02:37:34.460Z,3.60
2019-05-15T02:38:34.322Z,3.55
2019-05-15T02:39:34.324Z,3.48
2019-05-15T02:40:34.308Z,3.41
2019-05-15T02:41:34.295Z,3.36
2019-05-15T02:42:34.260Z,3.34
2019-05-15T02:43:34.284Z,3.31
2019-05-15T02:44:34.332Z,3.31
2019-05-15T02:45:37.834Z,3.25
2019-05-15T02:46:35.253Z,3.18
2019-05-15T02:47:34.211Z,3.21
2019-05-15T02:48:34.198Z,3.21
2019-05-15T02:49:34.230Z,3.21
2019-05-15T02:50:34.184Z,3.21
2019-05-15T02:51:34.158Z,3.23
2019-05-15T02:52:34.176Z,3.26
2019-05-15T02:53:34.146Z,3.23
2019-05-15T02:54:34.126Z,3.21
2019-05-15T02:55:36.133Z,3.16
2019-05-15T02:56:34.125Z,3.13
2019-05-15T02:57:34.114Z,3.08
2019-05-15T02:58:34.098Z,3.10
2019-05-15T02:59:34.113Z,3.34
2019-05-15T03:00:43.961Z,3.63
2019-05-15T03:01:35.077Z,3.80
2019-05-15T03:02:34.080Z,3.98
2019-05-15T03:03:34.053Z,4.20
2019-05-15T03:04:34.026Z,4.30
2019-05-15T03:05:34.050Z,4.38
2019-05-15T03:06:34.003Z,4.48
2019-05-15T03:07:33.995Z,4.49
2019-05-15T03:08:34.032Z,4.60
2019-05-15T03:09:34.010Z,4.66
2019-05-15T03:10:34.038Z,4.67
2019-05-15T03:11:33.980Z,4.67
2019-05-15T03:12:33.954Z,4.68
2019-05-15T03:13:33.947Z,4.75
2019-05-15T03:14:33.979Z,4.87
2019-05-15T03:15:33.979Z,4.99
2019-05-15T03:16:33.897Z,5.07
2019-05-15T03:17:33.883Z,5.05
2019-05-15T03:18:33.868Z,4.94
2019-05-15T03:19:33.893Z,4.86
2019-05-15T03:20:33.899Z,4.75
2019-05-15T03:21:33.876Z,4.73
2019-05-15T03:22:33.847Z,4.70
2019-05-15T03:23:33.844Z,4.73
2019-05-15T03:24:33.821Z,4.67
2019-05-15T03:25:33.846Z,4.58
2019-05-15T03:26:33.777Z,4.49
2019-05-15T03:27:34.944Z,4.44
2019-05-15T03:28:33.770Z,4.42
2019-05-15T03:29:33.771Z,4.34
2019-05-15T03:31:04.718Z,4.30
2019-05-15T03:31:48.895Z,4.19
2019-05-15T03:32:43.666Z,4.12
2019-05-15T03:33:37.063Z,4.08
2019-05-15T03:34:38.168Z,4.01
2019-05-15T03:35:34.722Z,3.98
2019-05-15T03:36:33.699Z,3.91
2019-05-15T03:37:34.352Z,3.81
2019-05-15T03:38:33.689Z,3.74
2019-05-15T03:39:33.682Z,3.65
2019-05-15T03:40:33.688Z,3.58
2019-05-15T03:41:33.616Z,3.55
2019-05-15T03:42:33.619Z,3.55
2019-05-15T03:43:33.653Z,3.51
2019-05-15T03:44:33.619Z,3.51
2019-05-15T03:45:33.680Z,3.66
2019-05-15T03:46:33.720Z,3.77
2019-05-15T03:47:33.608Z,3.87
2019-05-15T03:48:33.579Z,3.96
2019-05-15T03:49:33.595Z,4.08
2019-05-15T03:50:33.553Z,4.23
2019-05-15T03:51:33.558Z,4.40
2019-05-15T03:52:33.506Z,4.45
2019-05-15T03:53:33.540Z,4.52
2019-05-15T03:54:33.493Z,4.56
2019-05-15T03:55:33.533Z,4.62
2019-05-15T03:56:33.539Z,4.63
2019-05-15T03:57:33.481Z,4.73
2019-05-15T03:58:33.443Z,4.78
2019-05-15T03:59:33.450Z,4.89
2019-05-15T04:00:33.505Z,4.97
2019-05-15T04:01:38.802Z,5.04
2019-05-15T04:02:34.460Z,5.12
2019-05-15T04:03:33.417Z,5.28
2019-05-15T04:04:33.409Z,5.38
2019-05-15T04:05:33.427Z,5.46
2019-05-15T04:06:33.382Z,5.50
2019-05-15T04:07:33.382Z,5.57
2019-05-15T04:08:33.329Z,5.56
2019-05-15T04:09:33.343Z,5.54
2019-05-15T04:10:33.339Z,5.54
2019-05-15T04:11:33.384Z,5.56
2019-05-15T04:12:33.306Z,5.59
2019-05-15T04:13:33.336Z,5.65
2019-05-15T04:14:33.268Z,5.69
2019-05-15T04:15:33.276Z,5.69
2019-05-15T04:16:33.277Z,5.73
2019-05-15T04:17:33.272Z,5.73
2019-05-15T04:18:33.291Z,5.72
2019-05-15T04:19:33.260Z,5.72
2019-05-15T04:20:33.276Z,5.71
2019-05-15T04:21:33.244Z,5.72
2019-05-15T04:22:33.264Z,5.72
2019-05-15T04:23:33.297Z,5.75
2019-05-15T04:24:33.212Z,5.79
2019-05-15T04:25:33.209Z,5.76
2019-05-15T04:26:33.164Z,5.79
2019-05-15T04:27:33.185Z,5.73
2019-05-15T04:28:33.172Z,5.79
2019-05-15T04:29:33.139Z,5.79
2019-05-15T04:30:33.160Z,5.82
2019-05-15T04:31:50.411Z,5.87
2019-05-15T04:32:34.097Z,5.90
2019-05-15T04:33:33.083Z,5.93
2019-05-15T04:34:33.168Z,5.98
2019-05-15T04:35:33.069Z,5.99
2019-05-15T04:36:33.046Z,6.04
2019-05-15T04:37:33.037Z,6.09
2019-05-15T04:38:33.019Z,6.14
2019-05-15T04:39:33.049Z,6.19
2019-05-15T04:40:32.994Z,6.22
2019-05-15T04:41:32.995Z,6.24
2019-05-15T04:42:32.985Z,6.24
2019-05-15T04:43:41.500Z,6.28
2019-05-15T04:44:35.004Z,6.33
2019-05-15T04:45:35.142Z,6.31
2019-05-15T04:46:32.924Z,6.38
2019-05-15T04:47:32.937Z,6.42
2019-05-15T04:48:32.917Z,6.48
2019-05-15T04:49:32.917Z,6.49
2019-05-15T04:50:32.918Z,6.54
2019-05-15T04:51:32.898Z,6.57
2019-05-15T04:52:32.876Z,6.62
2019-05-15T04:53:33.494Z,6.62
2019-05-15T04:54:32.924Z,6.64
2019-05-15T04:55:32.870Z,6.70
2019-05-15T04:56:32.853Z,6.69
2019-05-15T04:57:34.309Z,6.70
2019-05-15T04:58:32.821Z,6.72
2019-05-15T04:59:32.823Z,6.74
2019-05-15T05:00:32.800Z,6.81
2019-05-15T05:01:32.779Z,6.92
2019-05-15T05:02:32.763Z,6.81
2019-05-15T05:03:34.571Z,6.88
2019-05-15T05:04:32.748Z,7.06
2019-05-15T05:05:32.896Z,7.39
2019-05-15T05:06:32.761Z,7.87
2019-05-15T05:07:32.774Z,8.16
2019-05-15T05:08:32.983Z,8.44
2019-05-15T05:09:32.715Z,8.51
2019-05-15T05:10:32.705Z,8.61
2019-05-15T05:11:32.720Z,8.63
2019-05-15T05:12:32.684Z,8.60
2019-05-15T05:13:32.656Z,8.70
2019-05-15T05:14:32.723Z,8.88
2019-05-15T05:15:32.645Z,8.87
2019-05-15T05:16:32.682Z,8.92
2019-05-15T05:17:32.631Z,9.08
2019-05-15T05:18:32.669Z,9.34
2019-05-15T05:19:32.585Z,9.48
2019-05-15T05:20:32.674Z,9.54
2019-05-15T05:21:32.614Z,9.25
2019-05-15T05:22:32.613Z,9.61
2019-05-15T05:23:32.569Z,9.72
2019-05-15T05:24:32.589Z,9.72
2019-05-15T05:25:32.545Z,9.83
2019-05-15T05:26:32.556Z,10.16
2019-05-15T05:27:32.529Z,10.19
2019-05-15T05:28:32.512Z,10.30
2019-05-15T05:29:32.501Z,10.38
2019-05-15T05:30:32.570Z,10.25
2019-05-15T05:31:32.535Z,10.05
2019-05-15T05:32:35.226Z,10.26
2019-05-15T05:33:32.439Z,10.76
2019-05-15T05:34:32.430Z,10.74
2019-05-15T05:35:32.521Z,10.94
2019-05-15T05:36:32.496Z,10.97
2019-05-15T05:37:32.461Z,10.87
2019-05-15T05:38:32.410Z,10.89
2019-05-15T05:39:32.399Z,11.15
2019-05-15T05:40:32.401Z,11.63
2019-05-15T05:41:32.479Z,11.66
2019-05-15T05:42:32.521Z,11.47
2019-05-15T05:43:32.347Z,11.30
2019-05-15T05:44:32.645Z,11.27
2019-05-15T05:45:32.322Z,11.44
2019-05-15T05:46:32.321Z,11.59
2019-05-15T05:47:32.639Z,11.88
2019-05-15T05:48:32.275Z,12.07
2019-05-15T05:49:32.289Z,11.57
2019-05-15T05:50:32.306Z,11.73
2019-05-15T05:51:32.262Z,11.88
2019-05-15T05:52:32.225Z,12.09
2019-05-15T05:53:32.395Z,12.31
2019-05-15T05:54:32.255Z,12.06
2019-05-15T05:55:32.235Z,11.95
2019-05-15T05:56:32.303Z,12.17
2019-05-15T05:57:32.255Z,12.58
2019-05-15T05:58:32.223Z,12.86
2019-05-15T05:59:32.205Z,13.20
2019-05-15T06:00:32.152Z,12.98
2019-05-15T06:01:35.877Z,12.70
2019-05-15T06:02:43.770Z,13.04
2019-05-15T06:03:33.144Z,13.70
2019-05-15T06:04:32.161Z,14.07
2019-05-15T06:05:32.181Z,14.59
2019-05-15T06:06:32.091Z,14.53
2019-05-15T06:07:32.101Z,14.63
2019-05-15T06:08:32.177Z,14.37
2019-05-15T06:09:32.039Z,14.70
2019-05-15T06:10:32.108Z,14.91
2019-05-15T06:11:32.069Z,15.02
2019-05-15T06:12:32.056Z,15.11
2019-05-15T06:13:32.003Z,14.62
2019-05-15T06:14:32.049Z,14.94
2019-05-15T06:15:31.968Z,15.00
2019-05-15T06:16:31.998Z,14.30
2019-05-15T06:17:32.015Z,14.08
2019-05-15T06:18:32.026Z,14.22
2019-05-15T06:19:31.986Z,14.55
2019-05-15T06:20:32.039Z,14.89
2019-05-15T06:21:31.951Z,15.06
2019-05-15T06:22:31.939Z,14.68
2019-05-15T06:23:35.570Z,15.03
2019-05-15T06:24:31.963Z,14.94
2019-05-15T06:25:31.894Z,15.09
2019-05-15T06:26:32.099Z,14.66
2019-05-15T06:27:31.908Z,14.66
2019-05-15T06:28:31.998Z,15.39
2019-05-15T06:29:31.906Z,15.90
2019-05-15T06:30:31.846Z,16.15
2019-05-15T06:31:31.962Z,15.68
2019-05-15T06:32:31.868Z,15.17
2019-05-15T06:33:32.024Z,15.57
2019-05-15T06:34:31.943Z,16.08
2019-05-15T06:35:31.839Z,16.47
2019-05-15T06:36:31.832Z,16.97
2019-05-15T06:37:31.823Z,16.93
2019-05-15T06:38:31.834Z,16.02
2019-05-15T06:39:31.844Z,16.26
2019-05-15T06:40:31.737Z,15.97
2019-05-15T06:41:33.889Z,15.67
2019-05-15T06:42:31.805Z,15.24
2019-05-15T06:43:31.824Z,15.31
2019-05-15T06:44:31.685Z,15.76
2019-05-15T06:45:31.681Z,16.08
2019-05-15T06:46:31.694Z,15.95
2019-05-15T06:47:32.552Z,15.51
2019-05-15T06:48:31.892Z,15.42
2019-05-15T06:50:41.513Z,16.09
2019-05-15T06:52:51.755Z,16.36
2019-05-15T06:53:51.758Z,16.58
2019-05-15T06:54:59.703Z,17.02
2019-05-15T06:55:51.902Z,17.79
2019-05-15T06:56:59.741Z,18.11
2019-05-15T06:57:51.726Z,18.55
2019-05-15T06:58:52.489Z,18.56
2019-05-15T06:59:51.666Z,18.55
2019-05-15T07:00:51.673Z,18.62
2019-05-15T07:01:51.743Z,18.70
2019-05-15T07:02:51.640Z,18.65
2019-05-15T07:03:51.658Z,18.41
2019-05-15T07:04:51.681Z,17.95
2019-05-15T07:06:00.446Z,18.16
2019-05-15T07:07:01.346Z,18.52
2019-05-15T07:08:01.420Z,18.13
2019-05-15T07:10:03.687Z,17.98
2019-05-15T07:11:03.101Z,17.24
2019-05-15T07:12:12.584Z,17.36
2019-05-15T07:13:03.114Z,17.94
2019-05-15T07:14:11.844Z,18.50
2019-05-15T07:15:12.561Z,18.13
2019-05-15T07:17:13.738Z,17.05
2019-05-15T07:18:13.301Z,17.82
2019-05-15T07:19:13.328Z,18.07
2019-05-15T07:20:13.332Z,18.15
2019-05-15T07:21:13.287Z,18.81
2019-05-15T07:22:13.242Z,18.98
2019-05-15T07:23:13.236Z,19.66
2019-05-15T07:24:13.310Z,19.99
2019-05-15T07:25:13.210Z,20.47
2019-05-15T07:26:21.084Z,20.75
2019-05-15T07:27:13.140Z,20.78
2019-05-15T07:28:13.126Z,20.52
2019-05-15T07:29:13.126Z,20.11
2019-05-15T07:30:13.101Z,19.82
2019-05-15T07:31:13.098Z,19.67
2019-05-15T07:32:13.074Z,19.08
2019-05-15T07:33:13.069Z,18.88
2019-05-15T07:34:13.088Z,18.49
2019-05-15T07:35:13.049Z,18.55
2019-05-15T07:36:13.046Z,19.27
2019-05-15T07:37:13.035Z,19.39
2019-05-15T07:38:13.026Z,19.29
2019-05-15T07:39:13.038Z,19.24
2019-05-15T07:40:13.000Z,19.16
2019-05-15T07:41:12.990Z,19.09
2019-05-15T07:42:12.990Z,19.54
2019-05-15T07:43:12.984Z,19.89
2019-05-15T07:44:12.959Z,20.26
2019-05-15T07:45:12.964Z,20.06
2019-05-15T07:46:12.927Z,20.25
2019-05-15T07:47:12.939Z,20.47
2019-05-15T07:48:12.916Z,20.81
2019-05-15T07:49:12.914Z,20.26
2019-05-15T07:50:12.930Z,20.13
2019-05-15T07:51:12.876Z,20.67
2019-05-15T07:52:12.878Z,19.67
2019-05-15T07:53:12.873Z,19.76
2019-05-15T07:54:12.854Z,20.10
2019-05-15T07:55:12.857Z,20.50
2019-05-15T07:56:12.838Z,20.29
2019-05-15T07:57:12.815Z,20.19
2019-05-15T07:58:12.802Z,19.56
2019-05-15T07:59:12.804Z,19.88
2019-05-15T08:00:12.804Z,20.21
2019-05-15T08:01:12.774Z,19.94
2019-05-15T08:02:12.765Z,20.50
2019-05-15T08:03:12.750Z,20.47
2019-05-15T08:04:24.796Z,20.55
2019-05-15T08:05:13.778Z,21.00
2019-05-15T08:06:12.732Z,20.96
2019-05-15T08:07:12.708Z,21.21
2019-05-15T08:08:12.714Z,20.96
2019-05-15T08:09:12.687Z,20.96
2019-05-15T08:10:12.667Z,19.99
2019-05-15T08:11:20.145Z,18.93
2019-05-15T08:12:13.668Z,18.52
2019-05-15T08:13:12.645Z,18.31
2019-05-15T08:14:12.640Z,18.92
2019-05-15T08:15:12.630Z,18.99
2019-05-15T08:16:12.635Z,19.49
2019-05-15T08:17:12.606Z,19.15
2019-05-15T08:18:13.105Z,18.90
2019-05-15T08:19:12.587Z,18.38
2019-05-15T08:20:12.588Z,17.98
2019-05-15T08:21:12.584Z,18.19
2019-05-15T08:22:15.113Z,17.87
2019-05-15T08:23:12.539Z,17.72
2019-05-15T08:24:12.517Z,18.04
2019-05-15T08:25:26.592Z,17.67
2019-05-15T08:26:13.507Z,17.94
2019-05-15T08:27:12.493Z,18.75
2019-05-15T08:28:12.496Z,19.29
2019-05-15T08:29:12.468Z,19.41
2019-05-15T08:30:12.448Z,19.34
2019-05-15T08:31:12.537Z,19.59
2019-05-15T08:32:12.445Z,20.13
2019-05-15T08:33:12.458Z,20.62
2019-05-15T08:34:16.132Z,20.29
2019-05-15T08:35:12.808Z,19.58
2019-05-15T08:36:12.397Z,19.82
2019-05-15T08:37:12.395Z,19.54
2019-05-15T08:38:14.275Z,19.74
2019-05-15T08:39:12.365Z,19.81
2019-05-15T08:40:12.347Z,19.96
2019-05-15T08:41:15.455Z,19.79
2019-05-15T08:42:12.337Z,18.70
2019-05-15T08:43:12.317Z,18.65
2019-05-15T08:44:12.307Z,18.63
2019-05-15T08:45:12.292Z,18.74
2019-05-15T08:46:12.299Z,18.77
2019-05-15T08:47:12.340Z,18.74
2019-05-15T08:48:12.280Z,18.37
2019-05-15T08:49:12.263Z,18.60
2019-05-15T08:50:12.252Z,19.29
2019-05-15T08:51:12.225Z,20.19
2019-05-15T08:52:12.217Z,19.52
2019-05-15T08:53:12.234Z,20.18
2019-05-15T08:54:12.207Z,20.43
2019-05-15T08:55:12.201Z,20.50
2019-05-15T08:56:14.746Z,20.11
2019-05-15T08:57:12.190Z,20.18
2019-05-15T08:58:14.057Z,20.24
2019-05-15T08:59:12.149Z,19.62
2019-05-15T09:00:12.142Z,19.58
2019-05-15T09:01:12.133Z,19.37
2019-05-15T09:02:12.107Z,19.71
2019-05-15T09:03:12.137Z,19.81
2019-05-15T09:04:26.730Z,19.85
2019-05-15T09:05:13.084Z,20.03
2019-05-15T09:06:12.071Z,20.16
2019-05-15T09:07:12.079Z,19.24
2019-05-15T09:08:12.095Z,19.18
2019-05-15T09:09:12.042Z,19.21
2019-05-15T09:10:12.028Z,18.47
2019-05-15T09:11:12.019Z,18.88
2019-05-15T09:12:12.014Z,19.16
2019-05-15T09:13:12.040Z,19.16
2019-05-15T09:14:11.981Z,19.36
2019-05-15T09:15:11.978Z,18.80
2019-05-15T09:16:11.970Z,18.71
2019-05-15T09:17:11.950Z,18.20
2019-05-15T09:18:15.928Z,18.23
2019-05-15T09:19:11.998Z,18.00
2019-05-15T09:20:11.923Z,18.38
2019-05-15T09:21:11.924Z,18.75
2019-05-15T09:22:11.907Z,19.11
2019-05-15T09:23:11.909Z,19.54
2019-05-15T09:24:11.895Z,19.66
2019-05-15T09:25:11.881Z,19.77
2019-05-15T09:26:11.859Z,19.12
2019-05-15T09:27:11.870Z,18.41
2019-05-15T09:28:11.846Z,18.63
2019-05-15T09:29:11.857Z,18.34
2019-05-15T09:30:11.828Z,18.18
2019-05-15T09:31:11.800Z,18.40
2019-05-15T09:32:12.585Z,18.26
2019-05-15T09:33:11.791Z,18.71
2019-05-15T09:34:11.791Z,18.83
2019-05-15T09:35:11.761Z,19.19
2019-05-15T09:36:11.750Z,19.54
2019-05-15T09:37:11.783Z,19.63
2019-05-15T09:38:11.742Z,20.00
2019-05-15T09:39:13.492Z,19.84
2019-05-15T09:40:11.732Z,18.56
2019-05-15T09:41:11.700Z,19.26
2019-05-15T09:42:11.711Z,19.14
2019-05-15T09:43:11.710Z,18.92
2019-05-15T09:44:11.686Z,18.50
2019-05-15T09:45:11.681Z,18.53
2019-05-15T09:46:11.649Z,18.60
2019-05-15T09:47:11.641Z,18.13
2019-05-15T09:48:14.666Z,18.58
2019-05-15T09:49:11.693Z,18.38
2019-05-15T09:50:11.649Z,18.49
2019-05-15T09:51:11.583Z,18.41
2019-05-15T09:52:11.610Z,18.07
2019-05-15T09:53:11.573Z,17.65
2019-05-15T09:54:11.562Z,18.11
2019-05-15T09:55:11.601Z,18.53
2019-05-15T09:56:11.558Z,18.88
2019-05-15T09:57:11.566Z,19.18
2019-05-15T09:58:11.527Z,20.02
2019-05-15T09:59:11.524Z,20.34
2019-05-15T10:00:11.505Z,20.74
2019-05-15T10:01:11.512Z,20.74
2019-05-15T10:02:11.502Z,20.41
2019-05-15T10:03:11.463Z,20.22
2019-05-15T10:04:11.463Z,20.29
2019-05-15T10:05:11.666Z,20.52
2019-05-15T10:06:20.992Z,20.52
2019-05-15T10:07:11.434Z,20.88
2019-05-15T10:08:11.437Z,21.11
2019-05-15T10:09:11.426Z,20.96
2019-05-15T10:10:11.404Z,21.27
2019-05-15T10:11:11.456Z,21.29
2019-05-15T10:12:11.398Z,21.35
2019-05-15T10:13:11.400Z,21.58
2019-05-15T10:14:11.459Z,22.36
2019-05-15T10:15:11.811Z,20.93
2019-05-15T10:16:11.396Z,20.14
2019-05-15T10:17:11.371Z,18.88
2019-05-15T10:18:11.354Z,19.14
2019-05-15T10:19:11.349Z,18.53
2019-05-15T10:20:11.338Z,18.31
2019-05-15T10:21:11.354Z,19.07
2019-05-15T10:22:11.359Z,19.59
2019-05-15T10:23:11.289Z,20.34
2019-05-15T10:24:11.378Z,19.89
2019-05-15T10:25:11.289Z,20.14
2019-05-15T10:26:13.929Z,20.36
2019-05-15T10:27:11.276Z,20.95
2019-05-15T10:28:11.227Z,21.24
2019-05-15T10:29:11.228Z,21.30
2019-05-15T10:30:11.214Z,19.73
2019-05-15T10:31:11.284Z,18.60
2019-05-15T10:32:11.246Z,19.74
2019-05-15T10:33:11.235Z,19.67
2019-05-15T10:34:11.174Z,20.63
2019-05-15T10:35:24.567Z,20.03
2019-05-15T10:36:12.247Z,19.79
2019-05-15T10:37:11.123Z,19.74
2019-05-15T10:38:11.201Z,20.40
2019-05-15T10:39:11.163Z,20.47
2019-05-15T10:40:11.108Z,20.63
2019-05-15T10:41:15.036Z,21.30
2019-05-15T10:42:11.072Z,21.62
2019-05-15T10:43:11.056Z,21.62
2019-05-15T10:44:11.106Z,21.62
2019-05-15T10:45:11.035Z,21.77
2019-05-15T10:46:13.355Z,22.07
2019-05-15T10:47:11.031Z,21.76
2019-05-15T10:48:11.097Z,21.54
2019-05-15T10:49:11.006Z,21.24
2019-05-15T10:50:11.025Z,21.37
2019-05-15T10:51:10.967Z,21.33
2019-05-15T10:52:11.348Z,21.17
2019-05-15T10:53:11.382Z,20.93
2019-05-15T10:54:10.977Z,20.51
2019-05-15T10:55:10.960Z,20.28
2019-05-15T10:56:10.976Z,20.58
2019-05-15T10:57:10.916Z,21.18
2019-05-15T10:58:16.694Z,21.12
2019-05-15T10:59:11.946Z,21.54
2019-05-15T11:00:10.935Z,21.72
2019-05-15T11:01:11.468Z,22.35
2019-05-15T11:02:10.899Z,22.73
2019-05-15T11:03:11.043Z,22.63
2019-05-15T11:04:10.857Z,22.76
2019-05-15T11:05:10.878Z,23.15
2019-05-15T11:06:10.841Z,22.81
2019-05-15T11:07:10.826Z,22.48
2019-05-15T11:08:10.789Z,22.96
2019-05-15T11:09:10.786Z,23.69
2019-05-15T11:10:10.807Z,24.38
2019-05-15T11:11:10.827Z,24.39
2019-05-15T11:12:10.766Z,23.71
2019-05-15T11:13:10.757Z,21.73
2019-05-15T11:14:10.738Z,20.92
2019-05-15T11:15:11.423Z,20.65
2019-05-15T11:16:10.728Z,20.26
2019-05-15T11:17:10.743Z,19.99
2019-05-15T11:18:10.739Z,20.36
2019-05-15T11:19:10.680Z,20.06
2019-05-15T11:20:10.717Z,21.00
2019-05-15T11:21:10.694Z,21.14
2019-05-15T11:22:10.650Z,20.85
2019-05-15T11:23:10.660Z,20.50
2019-05-15T11:24:10.673Z,20.48
2019-05-15T11:25:10.685Z,19.59
2019-05-15T11:26:10.653Z,18.98
2019-05-15T11:27:10.602Z,18.52
2019-05-15T11:28:10.597Z,18.19
2019-05-15T11:29:10.647Z,18.04
2019-05-15T11:30:10.615Z,17.98
2019-05-15T11:31:10.679Z,17.64
2019-05-15T11:32:10.556Z,17.12
2019-05-15T11:33:10.548Z,16.87
2019-05-15T11:34:10.549Z,16.96
2019-05-15T11:35:11.535Z,16.71
2019-05-15T11:36:10.560Z,16.50
2019-05-15T11:37:10.513Z,16.24
2019-05-15T11:38:10.510Z,16.13
2019-05-15T11:39:10.503Z,16.28
2019-05-15T11:40:11.086Z,16.28
2019-05-15T11:41:10.551Z,16.31
2019-05-15T11:42:10.447Z,16.24
2019-05-15T11:43:10.456Z,16.65
2019-05-15T11:44:10.478Z,17.30
2019-05-15T11:45:10.447Z,18.19
2019-05-15T11:46:10.414Z,18.83
2019-05-15T11:47:10.434Z,19.08
2019-05-15T11:48:10.414Z,20.03
2019-05-15T11:49:10.396Z,20.85
2019-05-15T11:50:10.364Z,20.44
2019-05-15T11:51:10.347Z,19.58
2019-05-15T11:52:10.365Z,18.89
2019-05-15T11:53:10.317Z,18.38
2019-05-15T11:54:10.348Z,18.01
2019-05-15T11:55:10.361Z,17.94
2019-05-15T11:56:10.326Z,17.80
2019-05-15T11:57:10.350Z,18.55
2019-05-15T11:58:10.304Z,18.77
2019-05-15T11:59:10.277Z,18.43
2019-05-15T12:00:17.197Z,18.41
2019-05-15T12:01:11.251Z,18.16
2019-05-15T12:02:10.258Z,18.18
2019-05-15T12:03:10.220Z,18.05
2019-05-15T12:04:10.208Z,18.18
2019-05-15T12:05:10.238Z,18.03
2019-05-15T12:06:18.460Z,18.08
2019-05-15T12:07:11.175Z,18.26
2019-05-15T12:08:12.555Z,17.92
2019-05-15T12:09:10.244Z,17.89
2019-05-15T12:10:10.898Z,17.51
2019-05-15T12:11:26.765Z,17.52
2019-05-15T12:12:11.225Z,17.38
2019-05-15T12:13:10.188Z,17.26
2019-05-15T12:14:10.117Z,17.24
2019-05-15T12:15:10.087Z,17.15
2019-05-15T12:16:10.128Z,16.96
2019-05-15T12:17:15.042Z,16.64
2019-05-15T12:18:11.117Z,16.49
2019-05-15T12:19:16.632Z,16.49
2019-05-15T12:20:11.143Z,16.47
2019-05-15T12:21:10.039Z,17.71
2019-05-15T12:22:10.017Z,18.74
2019-05-15T12:23:10.006Z,19.56
2019-05-15T12:24:10.002Z,20.48
2019-05-15T12:25:10.495Z,20.81
2019-05-15T12:26:10.000Z,21.37
2019-05-15T12:27:15.299Z,21.40
2019-05-15T12:28:10.959Z,21.66
2019-05-15T12:29:10.264Z,22.10
2019-05-15T12:30:10.267Z,21.05
2019-05-15T12:31:09.942Z,21.02
2019-05-15T12:32:23.572Z,20.21
2019-05-15T12:33:10.885Z,19.62
2019-05-15T12:34:09.953Z,18.89
2019-05-15T12:35:09.928Z,18.60
2019-05-15T12:36:10.921Z,18.45
2019-05-15T12:37:10.137Z,18.35
2019-05-15T12:38:10.437Z,17.87
2019-05-15T12:39:13.556Z,17.68
2019-05-15T13:00:10.779Z,18.65
2019-05-15T13:01:16.851Z,18.58
2019-05-15T13:02:10.687Z,18.25
2019-05-15T13:03:09.564Z,17.82
2019-05-15T13:04:09.592Z,17.63
2019-05-15T13:05:09.546Z,17.78
2019-05-15T13:06:09.592Z,17.80
2019-05-15T13:07:15.811Z,17.89
2019-05-15T13:08:10.564Z,17.90
2019-05-15T13:09:09.519Z,17.60
2019-05-15T13:10:09.526Z,17.87
2019-05-15T13:11:14.768Z,19.11
2019-05-15T13:12:10.521Z,18.93
2019-05-15T13:13:10.060Z,18.78
2019-05-15T13:14:09.573Z,18.63
2019-05-15T13:15:09.499Z,18.63
2019-05-15T13:16:09.466Z,18.73
2019-05-15T13:17:09.530Z,19.24
2019-05-15T13:18:13.958Z,19.19
2019-05-15T13:19:10.425Z,19.00
2019-05-15T13:20:09.430Z,18.65
2019-05-15T13:21:09.393Z,18.58
2019-05-15T13:22:17.802Z,18.37
2019-05-15T13:23:10.376Z,18.01
2019-05-15T13:24:09.395Z,18.11
2019-05-15T13:25:09.395Z,18.04
2019-05-15T13:26:22.936Z,18.05
2019-05-15T13:27:10.355Z,17.68
2019-05-15T13:28:09.352Z,17.60